sensor_id;sensor_type;location;lat;lon;timestamp;P1;durP1;ratioP1;P2;durP2;ratioP2
19585;SDS011;9939;49.246;9.106;2023-11-22T17:00:31;8.40;;;4.90;;
19585;SDS011;9939;49.246;9.106;2023-11-22T17:02:59;8.40;;;4.40;;
19585;SDS011;9939;49.246;9.106;2023-11-22T17:05:27;10.30;;;4.90;;
19585;SDS011;9939;49.246;9.106;2023-11-22T17:07:54;13.73;;;7.30;;
19585;SDS011;9939;49.246;9.106;2023-11-22T17:10:24;13.17;;;7.13;;
19585;SDS011;9939;49.246;9.106;2023-11-22T17:13:11;16.07;;;7.57;;
19585;SDS011;9939;49.246;9.106;2023-11-22T17:15:38;17.37;;;9.07;;
19585;SDS011;9939;49.246;9.106;2023-11-22T17:18:06;18.03;;;9.37;;
19585;SDS011;9939;49.246;9.106;2023-11-22T17:20:34;11.70;;;6.97;;
19585;SDS011;9939;49.246;9.106;2023-11-22T17:23:01;15.23;;;7.70;;
19585;SDS011;9939;49.246;9.106;2023-11-22T17:25:28;12.47;;;6.80;;
19585;SDS011;9939;49.246;9.106;2023-11-22T17:27:56;12.87;;;6.97;;
19585;SDS011;9939;49.246;9.106;2023-11-22T17:30:23;17.90;;;9.67;;
19585;SDS011;9939;49.246;9.106;2023-11-22T17:32:52;25.10;;;12.47;;
19585;SDS011;9939;49.246;9.106;2023-11-22T17:35:20;25.17;;;11.83;;
19585;SDS011;9939;49.246;9.106;2023-11-22T17:37:48;16.50;;;9.40;;
19585;SDS011;9939;49.246;9.106;2023-11-22T17:40:23;14.83;;;8.27;;
19585;SDS011;9939;49.246;9.106;2023-11-22T17:42:52;11.80;;;7.03;;
19585;SDS011;9939;49.246;9.106;2023-11-22T17:45:19;9.27;;;5.87;;
19585;SDS011;9939;49.246;9.106;2023-11-22T17:47:46;13.93;;;7.23;;
19585;SDS011;9939;49.246;9.106;2023-11-22T17:50:13;11.20;;;7.10;;
19585;SDS011;9939;49.246;9.106;2023-11-22T17:52:45;12.07;;;6.53;;
19585;SDS011;9939;49.246;9.106;2023-11-22T17:55:12;11.00;;;6.33;;
19585;SDS011;9939;49.246;9.106;2023-11-22T17:57:40;9.30;;;6.00;;
19585;SDS011;9939;49.246;9.106;2023-11-22T18:00:08;9.47;;;5.60;;
19585;SDS011;9939;49.246;9.106;2023-11-22T18:02:39;14.03;;;8.67;;
19585;SDS011;9939;49.246;9.106;2023-11-22T18:05:06;12.77;;;8.20;;
19585;SDS011;9939;49.246;9.106;2023-11-22T18:07:34;10.37;;;6.07;;
19585;SDS011;9939;49.246;9.106;2023-11-22T18:10:01;9.83;;;5.60;;
19585;SDS011;9939;49.246;9.106;2023-11-22T18:12:28;10.33;;;5.40;;
19585;SDS011;9939;49.246;9.106;2023-11-22T18:14:55;10.83;;;5.83;;
19585;SDS011;9939;49.246;9.106;2023-11-22T18:17:22;11.27;;;5.87;;
19585;SDS011;9939;49.246;9.106;2023-11-22T18:19:50;12.40;;;7.00;;
19585;SDS011;9939;49.246;9.106;2023-11-22T18:22:16;13.50;;;7.67;;
19585;SDS011;9939;49.246;9.106;2023-11-22T18:24:43;17.33;;;8.77;;
19585;SDS011;9939;49.246;9.106;2023-11-22T18:27:10;19.70;;;9.00;;
19585;SDS011;9939;49.246;9.106;2023-11-22T18:29:38;16.47;;;8.87;;
19585;SDS011;9939;49.246;9.106;2023-11-22T18:32:05;13.00;;;7.33;;
19585;SDS011;9939;49.246;9.106;2023-11-22T18:34:34;14.07;;;8.00;;
19585;SDS011;9939;49.246;9.106;2023-11-22T18:37:00;14.70;;;8.23;;
19585;SDS011;9939;49.246;9.106;2023-11-22T18:39:31;15.47;;;7.47;;
19585;SDS011;9939;49.246;9.106;2023-11-22T18:41:58;16.03;;;9.20;;
19585;SDS011;9939;49.246;9.106;2023-11-22T18:44:25;14.33;;;7.77;;
19585;SDS011;9939;49.246;9.106;2023-11-22T18:46:52;12.70;;;7.47;;
19585;SDS011;9939;49.246;9.106;2023-11-22T18:49:19;11.80;;;6.80;;
19585;SDS011;9939;49.246;9.106;2023-11-22T18:51:47;13.77;;;7.27;;
19585;SDS011;9939;49.246;9.106;2023-11-22T18:54:13;15.67;;;7.63;;
19585;SDS011;9939;49.246;9.106;2023-11-22T18:56:40;11.10;;;6.80;;
19585;SDS011;9939;49.246;9.106;2023-11-22T18:59:10;13.93;;;7.57;;
19585;SDS011;9939;49.246;9.106;2023-11-22T19:01:37;23.03;;;11.73;;
19585;SDS011;9939;49.246;9.106;2023-11-22T19:04:05;41.47;;;16.77;;
19585;SDS011;9939;49.246;9.106;2023-11-22T19:06:35;34.07;;;15.03;;
19585;SDS011;9939;49.246;9.106;2023-11-22T19:09:03;19.43;;;9.30;;
19585;SDS011;9939;49.246;9.106;2023-11-22T19:11:39;22.37;;;10.87;;
19585;SDS011;9939;49.246;9.106;2023-11-22T19:14:09;31.77;;;15.07;;
19585;SDS011;9939;49.246;9.106;2023-11-22T19:16:36;25.47;;;12.13;;
19585;SDS011;9939;49.246;9.106;2023-11-22T19:19:03;21.33;;;11.60;;
19585;SDS011;9939;49.246;9.106;2023-11-22T19:21:30;21.10;;;11.93;;
19585;SDS011;9939;49.246;9.106;2023-11-22T19:23:58;20.43;;;10.87;;
19585;SDS011;9939;49.246;9.106;2023-11-22T19:26:27;20.97;;;11.20;;
19585;SDS011;9939;49.246;9.106;2023-11-22T19:29:00;19.37;;;10.73;;
19585;SDS011;9939;49.246;9.106;2023-11-22T19:31:27;22.73;;;12.87;;
19585;SDS011;9939;49.246;9.106;2023-11-22T19:33:54;39.73;;;18.87;;
19585;SDS011;9939;49.246;9.106;2023-11-22T19:36:25;30.53;;;16.03;;
19585;SDS011;9939;49.246;9.106;2023-11-22T19:38:53;24.00;;;11.83;;
19585;SDS011;9939;49.246;9.106;2023-11-22T19:41:21;17.77;;;9.80;;
19585;SDS011;9939;49.246;9.106;2023-11-22T19:43:48;24.97;;;13.23;;
19585;SDS011;9939;49.246;9.106;2023-11-22T19:46:16;53.93;;;26.70;;
19585;SDS011;9939;49.246;9.106;2023-11-22T19:48:43;41.47;;;22.20;;
19585;SDS011;9939;49.246;9.106;2023-11-22T19:51:11;41.17;;;21.90;;
19585;SDS011;9939;49.246;9.106;2023-11-22T19:53:38;35.17;;;18.00;;
19585;SDS011;9939;49.246;9.106;2023-11-22T19:56:05;36.93;;;18.17;;
19585;SDS011;9939;49.246;9.106;2023-11-22T19:58:32;29.97;;;16.90;;
19585;SDS011;9939;49.246;9.106;2023-11-22T20:00:59;32.93;;;18.30;;
19585;SDS011;9939;49.246;9.106;2023-11-22T20:03:26;34.67;;;18.67;;
19585;SDS011;9939;49.246;9.106;2023-11-22T20:05:54;31.00;;;17.77;;
19585;SDS011;9939;49.246;9.106;2023-11-22T20:08:21;34.27;;;19.00;;
19585;SDS011;9939;49.246;9.106;2023-11-22T20:10:48;25.47;;;15.03;;
19585;SDS011;9939;49.246;9.106;2023-11-22T20:13:15;26.17;;;15.13;;
19585;SDS011;9939;49.246;9.106;2023-11-22T20:15:45;23.37;;;14.60;;
19585;SDS011;9939;49.246;9.106;2023-11-22T20:18:13;22.83;;;14.97;;
19585;SDS011;9939;49.246;9.106;2023-11-22T20:20:39;22.23;;;13.40;;
19585;SDS011;9939;49.246;9.106;2023-11-22T20:23:07;24.17;;;14.37;;
19585;SDS011;9939;49.246;9.106;2023-11-22T20:25:35;25.30;;;14.20;;
19585;SDS011;9939;49.246;9.106;2023-11-22T20:28:02;22.77;;;14.17;;
19585;SDS011;9939;49.246;9.106;2023-11-22T20:30:29;22.90;;;13.33;;
19585;SDS011;9939;49.246;9.106;2023-11-22T20:32:56;22.83;;;12.63;;
19585;SDS011;9939;49.246;9.106;2023-11-22T20:35:23;25.10;;;14.47;;
19585;SDS011;9939;49.246;9.106;2023-11-22T20:37:50;23.13;;;14.30;;
19585;SDS011;9939;49.246;9.106;2023-11-22T20:40:17;24.27;;;13.90;;
19585;SDS011;9939;49.246;9.106;2023-11-22T20:42:43;24.30;;;14.30;;
19585;SDS011;9939;49.246;9.106;2023-11-22T20:45:10;25.50;;;14.90;;
19585;SDS011;9939;49.246;9.106;2023-11-22T20:47:37;29.73;;;17.57;;
19585;SDS011;9939;49.246;9.106;2023-11-22T20:50:07;23.43;;;12.70;;
19585;SDS011;9939;49.246;9.106;2023-11-22T20:52:35;21.70;;;13.67;;
19585;SDS011;9939;49.246;9.106;2023-11-22T20:55:03;26.33;;;15.10;;
19585;SDS011;9939;49.246;9.106;2023-11-22T20:57:35;27.47;;;15.37;;
19585;SDS011;9939;49.246;9.106;2023-11-22T21:00:05;32.13;;;16.07;;
19585;SDS011;9939;49.246;9.106;2023-11-22T21:02:33;28.30;;;15.53;;
19585;SDS011;9939;49.246;9.106;2023-11-22T21:05:04;29.90;;;15.83;;
19585;SDS011;9939;49.246;9.106;2023-11-22T21:07:31;28.10;;;14.23;;
19585;SDS011;9939;49.246;9.106;2023-11-22T21:09:58;25.70;;;13.63;;
19585;SDS011;9939;49.246;9.106;2023-11-22T21:12:26;24.50;;;13.70;;
19585;SDS011;9939;49.246;9.106;2023-11-22T21:14:53;25.47;;;13.27;;
19585;SDS011;9939;49.246;9.106;2023-11-22T21:17:20;39.03;;;19.03;;
19585;SDS011;9939;49.246;9.106;2023-11-22T21:20:02;40.27;;;20.03;;
19585;SDS011;9939;49.246;9.106;2023-11-22T21:22:34;34.47;;;18.00;;
19585;SDS011;9939;49.246;9.106;2023-11-22T21:25:01;30.57;;;16.40;;
19585;SDS011;9939;49.246;9.106;2023-11-22T21:27:28;23.13;;;12.80;;
19585;SDS011;9939;49.246;9.106;2023-11-22T21:29:55;20.23;;;10.73;;
19585;SDS011;9939;49.246;9.106;2023-11-22T21:32:22;23.73;;;13.23;;
19585;SDS011;9939;49.246;9.106;2023-11-22T21:34:49;17.60;;;10.73;;
19585;SDS011;9939;49.246;9.106;2023-11-22T21:37:16;18.23;;;10.87;;
19585;SDS011;9939;49.246;9.106;2023-11-22T21:39:44;17.37;;;10.07;;
19585;SDS011;9939;49.246;9.106;2023-11-22T21:42:11;18.93;;;10.33;;
19585;SDS011;9939;49.246;9.106;2023-11-22T21:44:41;21.63;;;10.87;;
19585;SDS011;9939;49.246;9.106;2023-11-22T21:47:09;24.00;;;11.80;;
19585;SDS011;9939;49.246;9.106;2023-11-22T21:49:36;33.13;;;16.77;;
19585;SDS011;9939;49.246;9.106;2023-11-22T21:52:04;26.07;;;13.87;;
19585;SDS011;9939;49.246;9.106;2023-11-22T21:54:32;25.47;;;13.33;;
19585;SDS011;9939;49.246;9.106;2023-11-22T21:56:59;21.77;;;11.23;;
19585;SDS011;9939;49.246;9.106;2023-11-22T21:59:26;21.50;;;11.73;;
19585;SDS011;9939;49.246;9.106;2023-11-22T22:01:52;21.63;;;12.97;;
19585;SDS011;9939;49.246;9.106;2023-11-22T22:04:20;21.17;;;11.97;;
19585;SDS011;9939;49.246;9.106;2023-11-22T22:06:47;22.87;;;12.83;;
19585;SDS011;9939;49.246;9.106;2023-11-22T22:09:14;20.73;;;11.00;;
19585;SDS011;9939;49.246;9.106;2023-11-22T22:11:41;16.67;;;9.90;;
19585;SDS011;9939;49.246;9.106;2023-11-22T22:14:09;16.27;;;8.10;;
19585;SDS011;9939;49.246;9.106;2023-11-22T22:16:36;16.03;;;8.27;;
19585;SDS011;9939;49.246;9.106;2023-11-22T22:19:03;14.63;;;8.70;;
19585;SDS011;9939;49.246;9.106;2023-11-22T22:21:30;14.93;;;8.10;;
19585;SDS011;9939;49.246;9.106;2023-11-22T22:23:58;16.47;;;8.17;;
19585;SDS011;9939;49.246;9.106;2023-11-22T22:26:25;16.17;;;8.37;;
19585;SDS011;9939;49.246;9.106;2023-11-22T22:28:51;16.20;;;8.57;;
19585;SDS011;9939;49.246;9.106;2023-11-22T22:31:18;16.40;;;9.37;;
19585;SDS011;9939;49.246;9.106;2023-11-22T22:33:46;17.50;;;9.80;;
19585;SDS011;9939;49.246;9.106;2023-11-22T22:36:16;19.87;;;11.43;;
19585;SDS011;9939;49.246;9.106;2023-11-22T22:38:44;20.87;;;11.90;;
19585;SDS011;9939;49.246;9.106;2023-11-22T22:41:18;22.90;;;12.00;;
19585;SDS011;9939;49.246;9.106;2023-11-22T22:43:46;19.70;;;11.10;;
19585;SDS011;9939;49.246;9.106;2023-11-22T22:46:14;20.37;;;12.27;;
19585;SDS011;9939;49.246;9.106;2023-11-22T22:48:42;21.20;;;12.37;;
19585;SDS011;9939;49.246;9.106;2023-11-22T22:51:11;21.17;;;11.80;;
19585;SDS011;9939;49.246;9.106;2023-11-22T22:53:39;18.87;;;10.33;;
19585;SDS011;9939;49.246;9.106;2023-11-22T22:56:10;18.70;;;9.13;;
19585;SDS011;9939;49.246;9.106;2023-11-22T22:58:37;15.40;;;9.07;;
19585;SDS011;9939;49.246;9.106;2023-11-22T23:01:04;15.90;;;9.03;;
19585;SDS011;9939;49.246;9.106;2023-11-22T23:03:34;16.57;;;8.30;;
19585;SDS011;9939;49.246;9.106;2023-11-22T23:06:02;12.60;;;7.73;;
19585;SDS011;9939;49.246;9.106;2023-11-22T23:08:29;15.43;;;8.47;;
19585;SDS011;9939;49.246;9.106;2023-11-22T23:10:58;17.30;;;9.00;;
19585;SDS011;9939;49.246;9.106;2023-11-22T23:13:25;16.00;;;9.00;;
19585;SDS011;9939;49.246;9.106;2023-11-22T23:15:52;14.03;;;7.70;;
19585;SDS011;9939;49.246;9.106;2023-11-22T23:18:20;14.87;;;8.53;;
19585;SDS011;9939;49.246;9.106;2023-11-22T23:20:50;18.23;;;9.90;;
19585;SDS011;9939;49.246;9.106;2023-11-22T23:23:18;19.27;;;11.43;;
19585;SDS011;9939;49.246;9.106;2023-11-22T23:25:45;18.57;;;10.63;;
19585;SDS011;9939;49.246;9.106;2023-11-22T23:28:12;17.20;;;8.70;;
19585;SDS011;9939;49.246;9.106;2023-11-22T23:30:39;16.37;;;8.90;;
19585;SDS011;9939;49.246;9.106;2023-11-22T23:33:06;14.90;;;9.17;;
19585;SDS011;9939;49.246;9.106;2023-11-22T23:35:34;16.83;;;9.07;;
19585;SDS011;9939;49.246;9.106;2023-11-22T23:38:01;17.17;;;9.43;;
19585;SDS011;9939;49.246;9.106;2023-11-22T23:40:28;16.80;;;9.50;;
19585;SDS011;9939;49.246;9.106;2023-11-22T23:42:55;17.17;;;9.33;;
19585;SDS011;9939;49.246;9.106;2023-11-22T23:45:24;15.57;;;9.33;;
19585;SDS011;9939;49.246;9.106;2023-11-22T23:47:51;18.50;;;9.37;;
19585;SDS011;9939;49.246;9.106;2023-11-22T23:50:18;16.33;;;9.53;;
19585;SDS011;9939;49.246;9.106;2023-11-22T23:52:45;17.63;;;9.50;;
19585;SDS011;9939;49.246;9.106;2023-11-22T23:55:12;15.73;;;9.90;;
19585;SDS011;9939;49.246;9.106;2023-11-22T23:57:40;14.77;;;9.00;;
